createdAt,value
2023-05-13T00:00:39.401Z,98124.60
2023-05-13T00:03:12.645Z,98121.65
2023-05-13T00:05:41.079Z,98116.23
2023-05-13T00:08:09.073Z,98111.55
2023-05-13T00:10:36.959Z,98114.17
2023-05-13T00:13:05.023Z,98115.40
2023-05-13T00:15:32.974Z,98119.56
2023-05-13T00:18:00.870Z,98119.73
2023-05-13T00:20:28.836Z,98121.46
2023-05-13T00:22:56.787Z,98117.11
2023-05-13T00:25:24.689Z,98119.20
2023-05-13T00:27:52.672Z,98122.33
2023-05-13T00:30:21.418Z,98119.39
2023-05-13T00:32:49.656Z,98122.52
2023-05-13T00:35:20.894Z,98123.05
2023-05-13T00:37:48.939Z,98122.88
2023-05-13T00:40:23.433Z,98122.88
2023-05-13T00:42:51.740Z,98122.18
2023-05-13T00:45:21.508Z,98125.31
2023-05-13T00:47:49.764Z,98125.67
2023-05-13T00:50:17.890Z,98128.11
2023-05-13T00:52:49.679Z,98129.14
2023-05-13T00:55:17.931Z,98130.71
2023-05-13T00:57:46.153Z,98130.36
2023-05-13T01:00:14.668Z,98132.61
2023-05-13T01:03:08.180Z,98137.66
2023-05-13T01:05:55.201Z,98139.05
2023-05-13T01:08:47.341Z,98140.45
2023-05-13T01:11:22.010Z,98140.46
2023-05-13T01:13:58.185Z,98145.52
2023-05-13T01:16:43.477Z,98140.98
2023-05-13T01:19:44.512Z,98140.29
2023-05-13T01:22:13.362Z,98143.42
2023-05-13T01:24:42.625Z,98146.73
2023-05-13T01:27:10.664Z,98139.95
2023-05-13T01:29:38.919Z,98141.50
2023-05-13T01:32:09.535Z,98141.33
2023-05-13T01:34:39.644Z,98141.50
2023-05-13T01:37:08.086Z,98138.90
2023-05-13T01:39:38.449Z,98138.38
2023-05-13T01:42:09.479Z,98135.05
2023-05-13T01:44:37.552Z,98134.89
2023-05-13T01:47:06.326Z,98134.54
2023-05-13T01:49:34.347Z,98132.96
2023-05-13T01:52:02.296Z,98132.95
2023-05-13T01:54:30.931Z,98130.69
2023-05-13T01:57:04.526Z,98131.91
2023-05-13T01:59:32.503Z,98132.96
2023-05-13T02:02:00.721Z,98130.34
2023-05-13T02:04:28.732Z,98124.26
2023-05-13T02:06:57.116Z,98126.17
2023-05-13T02:09:25.856Z,98127.04
2023-05-13T02:11:53.863Z,98124.62
2023-05-13T02:14:22.519Z,98127.58
2023-05-13T02:16:50.845Z,98126.71
2023-05-13T02:19:20.001Z,98123.94
2023-05-13T02:21:49.823Z,98125.33
2023-05-13T02:24:17.919Z,98126.55
2023-05-13T02:26:45.877Z,98124.64
2023-05-13T02:29:14.373Z,98123.77
2023-05-13T02:31:43.541Z,98124.98
2023-05-13T02:34:11.715Z,98125.69
2023-05-13T02:36:39.717Z,98127.77
2023-05-13T02:39:08.371Z,98126.89
2023-05-13T02:41:37.734Z,98125.84
2023-05-13T02:44:06.163Z,98129.66
2023-05-13T02:46:35.068Z,98128.77
2023-05-13T02:49:03.610Z,98130.69
2023-05-13T02:51:32.417Z,98132.09
2023-05-13T02:54:00.619Z,98133.31
2023-05-13T02:56:28.657Z,98140.10
2023-05-13T02:58:57.051Z,98137.66
2023-05-13T03:01:26.782Z,98141.33
2023-05-13T03:03:55.070Z,98139.05
2023-05-13T03:06:23.081Z,98137.84
2023-05-13T03:08:51.540Z,98142.36
2023-05-13T03:11:19.498Z,98140.98
2023-05-13T03:13:47.417Z,98139.05
2023-05-13T03:16:15.577Z,98139.39
2023-05-13T03:18:43.775Z,98139.23
2023-05-13T03:21:11.960Z,98141.66
2023-05-13T03:23:40.388Z,98142.02
2023-05-13T03:26:08.423Z,98143.58
2023-05-13T03:28:36.432Z,98147.40
2023-05-13T03:31:04.723Z,98148.80
2023-05-13T03:33:34.813Z,98150.02
2023-05-13T03:36:02.960Z,98147.58
2023-05-13T03:38:32.714Z,98148.63
2023-05-13T03:41:00.794Z,98151.21
2023-05-13T03:43:29.657Z,98154.67
2023-05-13T03:46:01.008Z,98161.11
2023-05-13T03:48:29.102Z,98165.65
2023-05-13T03:50:58.315Z,98163.19
2023-05-13T03:53:26.426Z,98164.23
2023-05-13T03:55:55.135Z,98160.91
2023-05-13T03:58:23.155Z,98165.27
2023-05-13T04:00:51.116Z,98165.26
2023-05-13T04:03:19.593Z,98167.67
2023-05-13T04:05:48.711Z,98172.39
2023-05-13T04:08:16.720Z,98171.35
2023-05-13T04:10:45.302Z,98171.00
2023-05-13T04:13:13.324Z,98172.55
2023-05-13T04:15:41.628Z,98170.61
2023-05-13T04:18:09.959Z,98173.56
2023-05-13T04:20:39.600Z,98171.81
2023-05-13T04:23:07.812Z,98175.28
2023-05-13T04:25:37.548Z,98177.54
2023-05-13T04:28:05.741Z,98176.13
2023-05-13T04:30:37.399Z,98179.95
2023-05-13T04:33:06.693Z,98182.55
2023-05-13T04:35:36.001Z,98180.27
2023-05-13T04:38:06.039Z,98183.57
2023-05-13T04:40:34.103Z,98183.71
2023-05-13T04:43:07.746Z,98186.66
2023-05-13T04:45:43.035Z,98185.77
2023-05-13T04:48:13.696Z,98184.52
2023-05-13T04:50:47.341Z,98189.23
2023-05-13T04:53:16.712Z,98189.42
2023-05-13T04:55:50.757Z,98190.98
2023-05-13T04:58:18.748Z,98197.77
2023-05-13T05:00:47.219Z,98197.40
2023-05-13T05:03:16.378Z,98195.28
2023-05-13T05:05:44.550Z,98196.98
2023-05-13T05:08:14.421Z,98195.20
2023-05-13T05:10:42.659Z,98196.54
2023-05-13T05:13:11.319Z,98197.54
2023-05-13T05:15:40.035Z,98200.98
2023-05-13T05:18:10.214Z,98197.97
2023-05-13T05:20:40.137Z,98200.38
2023-05-13T05:23:12.683Z,98205.72
2023-05-13T05:25:40.930Z,98203.41
2023-05-13T05:28:10.040Z,98203.06
2023-05-13T05:30:42.016Z,98203.55
2023-05-13T05:33:22.513Z,98204.02
2023-05-13T05:35:51.565Z,98205.40
2023-05-13T05:38:26.094Z,98205.53
2023-05-13T05:40:56.608Z,98201.45
2023-05-13T05:43:25.004Z,98202.81
2023-05-13T05:45:53.782Z,98202.82
2023-05-13T05:48:23.402Z,98210.66
2023-05-13T05:50:51.999Z,98209.09
2023-05-13T05:53:28.071Z,98209.09
2023-05-13T05:55:56.336Z,98210.77
2023-05-13T05:58:27.281Z,98211.27
2023-05-13T06:00:57.354Z,98211.77
2023-05-13T06:03:27.752Z,98213.33
2023-05-13T06:05:56.075Z,98211.23
2023-05-13T06:08:30.373Z,98212.43
2023-05-13T06:10:59.096Z,98215.64
2023-05-13T06:13:27.333Z,98214.70
2023-05-13T06:15:56.813Z,98215.89
2023-05-13T06:18:26.729Z,98213.75
2023-05-13T06:20:55.437Z,98213.66
2023-05-13T06:23:23.503Z,98210.40
2023-05-13T06:25:53.097Z,98210.27
2023-05-13T06:28:21.463Z,98208.10
2023-05-13T06:30:52.052Z,98207.36
2023-05-13T06:33:20.220Z,98207.23
2023-05-13T06:35:49.992Z,98209.20
2023-05-13T06:38:20.490Z,98211.23
2023-05-13T06:40:49.151Z,98210.62
2023-05-13T06:43:18.308Z,98207.64
2023-05-13T06:45:54.257Z,98205.86
2023-05-13T06:48:23.166Z,98209.14
2023-05-13T06:50:51.564Z,98207.01
2023-05-13T06:53:19.839Z,98209.84
2023-05-13T06:55:48.008Z,98206.64
2023-05-13T06:58:16.280Z,98207.42
2023-05-13T07:00:47.141Z,98208.20
2023-05-13T07:03:15.483Z,98207.27
2023-05-13T07:05:44.745Z,98207.17
2023-05-13T07:08:19.085Z,98210.41
2023-05-13T07:10:47.316Z,98210.42
2023-05-13T07:13:15.817Z,98211.31
2023-05-13T07:15:44.344Z,98210.10
2023-05-13T07:18:12.466Z,98212.63
2023-05-13T07:20:40.883Z,98209.40
2023-05-13T07:23:09.230Z,98210.31
2023-05-13T07:25:37.399Z,98211.52
2023-05-13T07:28:05.523Z,98210.54
2023-05-13T07:30:33.650Z,98212.76
2023-05-13T07:33:02.183Z,98217.19
2023-05-13T07:35:31.031Z,98216.08
2023-05-13T07:37:59.256Z,98217.95
2023-05-13T07:40:27.110Z,98222.80
2023-05-13T07:42:55.188Z,98226.63
2023-05-13T07:45:23.713Z,98226.94
2023-05-13T07:47:51.956Z,98230.85
2023-05-13T07:50:20.031Z,98231.58
2023-05-13T07:52:52.116Z,98237.55
2023-05-13T07:55:20.655Z,98238.02
2023-05-13T07:57:49.526Z,98238.23
2023-05-13T08:00:17.996Z,98240.71
2023-05-13T08:02:46.329Z,98243.42
2023-05-13T08:05:14.519Z,98245.77
2023-05-13T08:07:42.627Z,98243.55
2023-05-13T08:10:10.795Z,98247.91
2023-05-13T08:12:40.567Z,98248.02
2023-05-13T08:15:08.957Z,98248.42
2023-05-13T08:17:37.239Z,98245.52
2023-05-13T08:20:06.031Z,98250.59
2023-05-13T08:22:34.217Z,98249.67
2023-05-13T08:25:03.634Z,98249.63
2023-05-13T08:27:31.792Z,98250.80
2023-05-13T08:29:59.892Z,98250.16
2023-05-13T08:32:28.008Z,98247.87
2023-05-13T08:34:56.394Z,98248.13
2023-05-13T08:37:24.327Z,98246.42
2023-05-13T08:39:52.359Z,98245.12
2023-05-13T08:42:23.212Z,98243.79
2023-05-13T08:44:53.190Z,98243.23
2023-05-13T08:47:58.576Z,98242.48
2023-05-13T08:50:28.627Z,98245.40
2023-05-13T08:52:59.190Z,98244.21
2023-05-13T08:55:27.614Z,98240.70
2023-05-13T08:57:56.241Z,98239.31
2023-05-13T09:00:24.718Z,98238.98
2023-05-13T09:02:52.865Z,98238.08
2023-05-13T09:05:22.364Z,98234.91
2023-05-13T09:07:51.327Z,98229.27
2023-05-13T09:10:21.291Z,98229.71
2023-05-13T09:12:50.889Z,98228.64
2023-05-13T09:15:20.800Z,98225.94
2023-05-13T09:17:53.447Z,98224.52
2023-05-13T09:20:25.521Z,98226.72
2023-05-13T09:22:53.691Z,98227.50
2023-05-13T09:25:27.171Z,98221.98
2023-05-13T09:28:00.857Z,98224.00
2023-05-13T09:30:33.956Z,98221.45
2023-05-13T09:33:16.740Z,98222.50
2023-05-13T09:35:53.722Z,98217.45
2023-05-13T09:38:26.247Z,98215.09
2023-05-13T09:40:59.126Z,98214.37
2023-05-13T09:43:32.667Z,98211.83
2023-05-13T09:46:05.657Z,98210.48
2023-05-13T09:48:35.070Z,98210.23
2023-05-13T09:51:03.729Z,98212.97
2023-05-13T09:53:31.867Z,98211.28
2023-05-13T09:56:01.845Z,98209.89
2023-05-13T09:58:31.211Z,98207.13
2023-05-13T10:01:00.870Z,98206.09
2023-05-13T10:03:30.135Z,98204.63
2023-05-13T10:06:02.308Z,98204.75
2023-05-13T10:08:31.737Z,98202.50
2023-05-13T10:11:00.082Z,98199.27
2023-05-13T10:13:31.876Z,98197.17
2023-05-13T10:16:00.388Z,98198.62
2023-05-13T10:18:29.482Z,98194.77
2023-05-13T10:20:57.803Z,98195.08
2023-05-13T10:23:28.649Z,98197.29
2023-05-13T10:25:59.238Z,98200.83
2023-05-13T10:28:28.574Z,98197.73
2023-05-13T10:30:57.291Z,98197.67
2023-05-13T10:33:27.448Z,98195.67
2023-05-13T10:36:01.880Z,98198.77
2023-05-13T10:39:02.788Z,98198.98
2023-05-13T10:42:00.200Z,98198.84
2023-05-13T10:44:28.946Z,98196.80
2023-05-13T10:46:57.764Z,98197.68
2023-05-13T10:49:36.968Z,98197.08
2023-05-13T10:52:12.759Z,98195.44
2023-05-13T10:54:44.418Z,98196.89
2023-05-13T10:57:13.968Z,98195.84
2023-05-13T11:00:17.058Z,98191.91
2023-05-13T11:02:45.607Z,98191.25
2023-05-13T11:05:21.818Z,98193.20
2023-05-13T11:07:58.365Z,98196.66
2023-05-13T11:10:30.682Z,98198.83
2023-05-13T11:13:14.168Z,98198.43
2023-05-13T11:15:51.255Z,98198.53
2023-05-13T11:18:21.375Z,98197.34
2023-05-13T11:20:54.322Z,98196.42
2023-05-13T11:23:22.684Z,98197.58
2023-05-13T11:26:16.530Z,98201.89
2023-05-13T11:28:58.492Z,98203.30
2023-05-13T11:31:29.287Z,98199.92
2023-05-13T11:34:15.183Z,98201.98
2023-05-13T11:37:04.690Z,98200.19
2023-05-13T11:39:33.315Z,98201.55
2023-05-13T11:42:06.874Z,98201.42
2023-05-13T11:44:36.136Z,98201.41
2023-05-13T11:47:06.272Z,98201.94
2023-05-13T11:49:37.721Z,98200.25
2023-05-13T11:52:07.383Z,98199.84
2023-05-13T11:54:53.976Z,98203.33
2023-05-13T11:57:35.052Z,98205.96
2023-05-13T12:00:05.281Z,98201.20
2023-05-13T12:02:38.145Z,98203.92
2023-05-13T12:05:09.037Z,98203.97
2023-05-13T12:07:39.808Z,98201.39
2023-05-13T12:10:08.938Z,98196.66
2023-05-13T12:12:43.363Z,98198.03
2023-05-13T12:15:18.202Z,98194.73
2023-05-13T12:17:49.992Z,98193.05
2023-05-13T12:20:24.758Z,98192.35
2023-05-13T12:22:57.215Z,98186.95
2023-05-13T12:25:44.180Z,98183.13
2023-05-13T12:28:23.709Z,98184.14
2023-05-13T12:30:59.399Z,98179.50
2023-05-13T12:33:30.286Z,98178.77
2023-05-13T12:36:20.764Z,98177.29
2023-05-13T12:39:11.675Z,98175.48
2023-05-13T12:41:42.472Z,98175.60
2023-05-13T12:44:17.253Z,98170.09
2023-05-13T12:46:59.613Z,98169.91
2023-05-13T12:49:28.256Z,98162.56
2023-05-13T12:51:57.297Z,98158.85
2023-05-13T12:54:25.578Z,98154.03
2023-05-13T12:56:54.000Z,98151.81
2023-05-13T12:59:22.851Z,98150.36
2023-05-13T13:01:51.386Z,98150.80
2023-05-13T13:04:20.104Z,98150.56
2023-05-13T13:06:48.599Z,98150.02
2023-05-13T13:09:16.928Z,98149.05
2023-05-13T13:11:45.228Z,98153.30
2023-05-13T13:14:13.776Z,98150.65
2023-05-13T13:16:42.568Z,98152.02
2023-05-13T13:19:10.853Z,98148.83
2023-05-13T13:21:39.505Z,98148.61
2023-05-13T13:24:08.098Z,98147.19
2023-05-13T13:26:36.180Z,98146.83
2023-05-13T13:29:04.533Z,98147.21
2023-05-13T13:31:32.753Z,98143.82
2023-05-13T13:34:05.230Z,98138.33
2023-05-13T13:36:33.285Z,98133.71
2023-05-13T13:39:01.606Z,98133.81
2023-05-13T13:41:29.808Z,98134.47
2023-05-13T13:43:58.034Z,98130.86
2023-05-13T13:46:26.256Z,98127.43
2023-05-13T13:48:54.563Z,98131.23
2023-05-13T13:51:22.903Z,98132.58
2023-05-13T13:53:51.131Z,98128.60
2023-05-13T13:56:20.900Z,98126.45
2023-05-13T13:58:49.926Z,98127.35
2023-05-13T14:01:20.408Z,98128.21
2023-05-13T14:03:50.540Z,98124.02
2023-05-13T14:06:19.204Z,98124.89
2023-05-13T14:08:47.819Z,98124.89
2023-05-13T14:11:17.073Z,98127.52
2023-05-13T14:13:45.689Z,98132.75
2023-05-13T14:16:14.308Z,98130.64
2023-05-13T14:18:44.480Z,98129.79
2023-05-13T14:21:12.677Z,98130.95
2023-05-13T14:23:44.996Z,98132.59
2023-05-13T14:26:18.454Z,98131.21
2023-05-13T14:28:47.451Z,98135.24
2023-05-13T14:31:16.475Z,98133.59
2023-05-13T14:33:45.178Z,98137.52
2023-05-13T14:36:16.428Z,98137.39
2023-05-13T14:38:44.917Z,98134.57
2023-05-13T14:41:20.016Z,98133.24
2023-05-13T14:43:49.156Z,98129.58
2023-05-13T14:46:17.909Z,98129.60
2023-05-13T14:48:46.189Z,98127.67
2023-05-13T14:51:14.253Z,98128.81
2023-05-13T14:53:43.514Z,98132.59
2023-05-13T14:56:11.842Z,98133.00
2023-05-13T14:58:40.136Z,98134.08
2023-05-13T15:01:08.667Z,98131.98
2023-05-13T15:03:36.946Z,98130.77
2023-05-13T15:06:05.586Z,98128.15
2023-05-13T15:08:34.213Z,98125.11
2023-05-13T15:11:02.572Z,98125.27
2023-05-13T15:13:35.608Z,98128.86
2023-05-13T15:16:04.778Z,98132.59
2023-05-13T15:18:33.184Z,98132.64
2023-05-13T15:21:01.641Z,98132.08
2023-05-13T15:23:29.822Z,98133.09
2023-05-13T15:25:58.293Z,98135.34
2023-05-13T15:28:26.568Z,98133.44
2023-05-13T15:30:55.469Z,98126.92
2023-05-13T15:33:23.500Z,98123.77
2023-05-13T15:35:52.821Z,98126.57
2023-05-13T15:38:21.847Z,98127.08
2023-05-13T15:40:50.640Z,98123.90
2023-05-13T15:43:18.941Z,98121.91
2023-05-13T15:45:47.482Z,98120.78
2023-05-13T15:48:17.187Z,98119.46
2023-05-13T15:50:46.079Z,98117.70
2023-05-13T15:53:14.535Z,98119.30
2023-05-13T15:55:43.121Z,98120.36
2023-05-13T15:58:11.569Z,98120.46
2023-05-13T16:00:40.203Z,98119.63
2023-05-13T16:03:08.838Z,98116.98
2023-05-13T16:05:38.728Z,98109.17
2023-05-13T16:08:07.125Z,98109.00
2023-05-13T16:10:35.909Z,98111.48
2023-05-13T16:13:04.739Z,98112.20
2023-05-13T16:15:33.162Z,98112.35
2023-05-13T16:18:01.634Z,98111.02
2023-05-13T16:20:29.698Z,98112.50
2023-05-13T16:22:58.619Z,98114.95
2023-05-13T16:25:27.509Z,98112.77
2023-05-13T16:27:57.093Z,98110.41
2023-05-13T16:30:25.709Z,98114.68
2023-05-13T16:32:54.759Z,98110.92
2023-05-13T16:35:23.002Z,98110.84
2023-05-13T16:37:51.618Z,98114.84
2023-05-13T16:40:19.933Z,98112.47
2023-05-13T16:42:48.260Z,98112.19
2023-05-13T16:45:16.820Z,98111.90
2023-05-13T16:47:45.008Z,98109.88
2023-05-13T16:50:13.774Z,98106.65
2023-05-13T16:52:42.463Z,98105.91
2023-05-13T16:55:10.655Z,98110.44
2023-05-13T16:57:38.825Z,98111.11
2023-05-13T17:00:07.476Z,98112.63
2023-05-13T17:02:36.080Z,98112.59
2023-05-13T17:05:04.933Z,98107.52
2023-05-13T17:07:33.205Z,98114.39
2023-05-13T17:10:01.545Z,98117.50
2023-05-13T17:12:29.742Z,98115.83
2023-05-13T17:14:58.340Z,98113.33
2023-05-13T17:17:26.946Z,98109.73
2023-05-13T17:19:55.601Z,98108.79
2023-05-13T17:22:23.838Z,98106.09
2023-05-13T17:24:52.023Z,98108.48
2023-05-13T17:27:21.630Z,98108.11
2023-05-13T17:29:50.066Z,98109.69
2023-05-13T17:32:19.924Z,98114.59
2023-05-13T17:34:49.809Z,98116.73
2023-05-13T17:37:17.851Z,98119.25
2023-05-13T17:39:46.224Z,98119.56
2023-05-13T17:42:14.570Z,98117.73
2023-05-13T17:44:42.684Z,98115.76
2023-05-13T17:47:10.892Z,98118.11
2023-05-13T17:49:38.972Z,98117.00
2023-05-13T17:52:07.283Z,98118.02
2023-05-13T17:54:38.048Z,98121.88
2023-05-13T17:57:06.934Z,98122.56
2023-05-13T17:59:35.006Z,98119.23
2023-05-13T18:02:03.137Z,98116.94
2023-05-13T18:04:31.500Z,98117.61
2023-05-13T18:06:59.617Z,98117.73
2023-05-13T18:09:28.560Z,98120.90
2023-05-13T18:11:58.846Z,98122.11
2023-05-13T18:14:34.516Z,98120.89
2023-05-13T18:17:03.056Z,98123.48
2023-05-13T18:19:31.545Z,98122.75
2023-05-13T18:21:59.733Z,98122.68
2023-05-13T18:24:27.910Z,98126.13
2023-05-13T18:26:56.119Z,98125.18
2023-05-13T18:29:24.253Z,98125.78
2023-05-13T18:31:52.846Z,98126.99
2023-05-13T18:34:21.250Z,98128.73
2023-05-13T18:36:52.028Z,98127.83
2023-05-13T18:39:22.107Z,98134.33
2023-05-13T18:41:50.726Z,98135.12
2023-05-13T18:44:18.874Z,98138.91
2023-05-13T18:46:47.094Z,98138.74
2023-05-13T18:49:15.374Z,98139.92
2023-05-13T18:51:45.338Z,98138.63
2023-05-13T18:54:13.379Z,98141.20
2023-05-13T18:56:42.232Z,98142.86
2023-05-13T18:59:10.419Z,98142.30
2023-05-13T19:01:38.571Z,98144.19
2023-05-13T19:04:06.897Z,98146.95
2023-05-13T19:06:38.091Z,98146.91
2023-05-13T19:09:06.613Z,98148.17
2023-05-13T19:11:34.525Z,98145.95
2023-05-13T19:14:02.759Z,98147.40
2023-05-13T19:16:30.838Z,98150.50
2023-05-13T19:18:58.924Z,98149.44
2023-05-13T19:21:27.294Z,98145.34
2023-05-13T19:23:55.308Z,98144.23
2023-05-13T19:26:23.441Z,98149.43
2023-05-13T19:28:52.142Z,98147.80
2023-05-13T19:31:22.286Z,98148.64
2023-05-13T19:33:50.530Z,98150.90
2023-05-13T19:36:18.620Z,98151.21
2023-05-13T19:38:46.859Z,98148.58
2023-05-13T19:41:15.979Z,98153.61
2023-05-13T19:43:46.991Z,98158.67
2023-05-13T19:46:15.266Z,98158.28
2023-05-13T19:48:43.362Z,98155.23
2023-05-13T19:51:11.422Z,98161.13
2023-05-13T19:53:39.818Z,98164.23
2023-05-13T19:56:07.874Z,98163.97
2023-05-13T19:58:36.765Z,98170.73
2023-05-13T20:01:04.933Z,98173.27
2023-05-13T20:03:32.985Z,98169.45
2023-05-13T20:06:01.977Z,98168.08
2023-05-13T20:08:31.654Z,98170.90
2023-05-13T20:10:59.994Z,98176.00
2023-05-13T20:13:28.142Z,98177.89
2023-05-13T20:15:56.112Z,98172.37
2023-05-13T20:18:24.115Z,98173.71
2023-05-13T20:20:53.845Z,98170.98
2023-05-13T20:23:21.826Z,98163.52
2023-05-13T20:25:49.923Z,98160.83
2023-05-13T20:28:17.915Z,98169.08
2023-05-13T20:30:46.157Z,98166.11
2023-05-13T20:33:14.123Z,98166.68
2023-05-13T20:35:42.359Z,98171.30
2023-05-13T20:38:10.847Z,98172.38
2023-05-13T20:40:39.149Z,98173.10
2023-05-13T20:43:07.906Z,98169.10
2023-05-13T20:45:39.892Z,98167.89
2023-05-13T20:48:09.315Z,98164.98
2023-05-13T20:50:37.755Z,98164.15
2023-05-13T20:53:05.963Z,98164.54
2023-05-13T20:55:33.859Z,98161.29
2023-05-13T20:58:01.879Z,98162.23
2023-05-13T21:00:31.531Z,98165.11
2023-05-13T21:03:00.249Z,98162.41
2023-05-13T21:05:28.737Z,98160.60
2023-05-13T21:07:57.751Z,98160.90
2023-05-13T21:10:26.161Z,98161.85
2023-05-13T21:12:54.317Z,98159.59
2023-05-13T21:15:22.596Z,98151.53
2023-05-13T21:17:50.827Z,98149.45
2023-05-13T21:20:19.161Z,98152.83
2023-05-13T21:22:47.561Z,98152.46
2023-05-13T21:25:15.984Z,98150.20
2023-05-13T21:27:44.303Z,98147.55
2023-05-13T21:30:13.730Z,98142.48
2023-05-13T21:32:42.221Z,98141.33
2023-05-13T21:35:10.741Z,98143.91
2023-05-13T21:37:39.080Z,98150.83
2023-05-13T21:40:08.543Z,98152.11
2023-05-13T21:42:37.019Z,98145.17
2023-05-13T21:45:05.880Z,98144.98
2023-05-13T21:47:33.774Z,98150.73
2023-05-13T21:50:01.941Z,98152.61
2023-05-13T21:52:30.052Z,98153.09
2023-05-13T21:54:58.114Z,98150.95
2023-05-13T21:57:26.222Z,98157.38
2023-05-13T21:59:54.305Z,98158.75
2023-05-13T22:02:22.841Z,98160.31
2023-05-13T22:04:51.191Z,98163.66
2023-05-13T22:07:19.536Z,98165.05
2023-05-13T22:09:49.749Z,98163.45
2023-05-13T22:12:18.770Z,98160.11
2023-05-13T22:14:46.966Z,98158.50
2023-05-13T22:17:15.330Z,98156.84
2023-05-13T22:19:43.547Z,98158.33
2023-05-13T22:22:11.827Z,98163.46
2023-05-13T22:24:39.862Z,98166.30
2023-05-13T22:27:07.925Z,98165.16
2023-05-13T22:29:36.152Z,98167.98
2023-05-13T22:32:04.412Z,98163.67
2023-05-13T22:34:32.904Z,98163.21
2023-05-13T22:37:01.932Z,98159.66
2023-05-13T22:39:30.088Z,98159.80
2023-05-13T22:42:00.152Z,98155.73
2023-05-13T22:44:28.474Z,98154.82
2023-05-13T22:46:56.575Z,98157.20
2023-05-13T22:49:24.753Z,98156.23
2023-05-13T22:51:52.976Z,98155.61
2023-05-13T22:54:21.123Z,98157.60
2023-05-13T22:56:49.388Z,98154.00
2023-05-13T22:59:17.557Z,98157.23
2023-05-13T23:01:45.879Z,98160.27
2023-05-13T23:04:14.004Z,98160.68
2023-05-13T23:06:42.084Z,98156.55
2023-05-13T23:09:10.542Z,98156.38
2023-05-13T23:11:38.721Z,98149.43
2023-05-13T23:14:06.911Z,98145.80
2023-05-13T23:16:36.686Z,98144.75
2023-05-13T23:19:04.847Z,98147.35
2023-05-13T23:21:33.130Z,98151.20
2023-05-13T23:24:01.204Z,98153.31
2023-05-13T23:26:29.231Z,98153.69
2023-05-13T23:28:57.348Z,98153.70
2023-05-13T23:31:25.538Z,98153.38
2023-05-13T23:33:53.759Z,98154.98
2023-05-13T23:36:21.807Z,98158.35
2023-05-13T23:38:50.937Z,98160.85
2023-05-13T23:41:19.042Z,98162.48
2023-05-13T23:43:47.287Z,98158.71
2023-05-13T23:46:15.454Z,98156.65
2023-05-13T23:48:43.837Z,98161.21
2023-05-13T23:51:12.010Z,98160.38
2023-05-13T23:53:40.243Z,98158.67
2023-05-13T23:56:08.645Z,98161.32
2023-05-13T23:58:37.215Z,98162.55
